Time;durP1;ratioP1;P1;durP2;ratioP2;P2;SDS_P1;SDS_P2;PMS_P1;PMS_P2;Temp;Humidity;BMP_temperature;BMP_pressure;BME280_temperature;BME280_humidity;BME280_pressure;Samples;Min_cycle;Max_cycle;Signal;HPM_P1;HPM_P2
2023/01/20 00:00:27;;;;;;;12.43;8.10;;;;;;;;;;5052370;28;20431;-85
2023/01/20 00:02:53;;;;;;;9.20;7.57;;;;;;;;;;5051780;28;20181;-86
2023/01/20 00:05:19;;;;;;;9.33;7.80;;;;;;;;;;5052286;28;20181;-85
2023/01/20 00:07:45;;;;;;;9.57;8.57;;;;;;;;;;5053992;28;20170;-85
2023/01/20 00:10:11;;;;;;;13.03;8.63;;;;;;;;;;5052114;28;20431;-84
2023/01/20 00:12:37;;;;;;;9.63;8.13;;;;;;;;;;5051075;28;20794;-85
2023/01/20 00:15:04;;;;;;;11.00;8.63;;;;;;;;;;5049636;28;20786;-86
2023/01/20 00:17:30;;;;;;;11.60;8.87;;;;;;;;;;5052315;28;20455;-86
2023/01/20 00:19:56;;;;;;;11.27;8.60;;;;;;;;;;5051812;28;20435;-85
2023/01/20 00:22:22;;;;;;;10.93;8.67;;;;;;;;;;5049158;28;20439;-86
2023/01/20 00:24:48;;;;;;;10.20;8.33;;;;;;;;;;5052195;28;20439;-85
2023/01/20 00:27:15;;;;;;;13.03;9.30;;;;;;;;;;5052361;28;20875;-85
2023/01/20 00:29:45;;;;;;;9.80;8.23;;;;;;;;;;5041341;28;20455;-85
2023/01/20 00:32:11;;;;;;;9.77;8.10;;;;;;;;;;5052297;28;20773;-85
2023/01/20 00:34:37;;;;;;;11.20;9.17;;;;;;;;;;5051170;28;20813;-86
2023/01/20 00:37:03;;;;;;;11.67;8.43;;;;;;;;;;5050016;28;20508;-86
2023/01/20 00:39:29;;;;;;;11.93;9.27;;;;;;;;;;5049123;28;20233;-85
2023/01/20 00:41:55;;;;;;;8.77;7.90;;;;;;;;;;5049731;28;20439;-87
2023/01/20 00:44:21;;;;;;;10.17;8.80;;;;;;;;;;5049742;28;20181;-85
2023/01/20 00:46:47;;;;;;;11.23;9.00;;;;;;;;;;5052089;28;20428;-85
2023/01/20 00:49:13;;;;;;;11.10;9.00;;;;;;;;;;5050236;28;20428;-86
2023/01/20 00:51:39;;;;;;;12.93;9.33;;;;;;;;;;5049984;28;20530;-85
2023/01/20 00:54:05;;;;;;;12.20;9.67;;;;;;;;;;5050779;28;20431;-85
2023/01/20 00:56:32;;;;;;;13.27;9.20;;;;;;;;;;5052377;28;20448;-85
2023/01/20 00:58:58;;;;;;;12.80;9.87;;;;;;;;;;5048217;28;20497;-86
2023/01/20 01:01:24;;;;;;;14.53;9.23;;;;;;;;;;5052321;28;20604;-86
2023/01/20 01:03:52;;;;;;;11.80;10.03;;;;;;;;;;5051200;28;20443;-86
2023/01/20 01:06:19;;;;;;;13.23;10.67;;;;;;;;;;5049726;28;20177;-85
2023/01/20 01:08:45;;;;;;;10.73;9.03;;;;;;;;;;5051508;28;20954;-85
2023/01/20 01:11:11;;;;;;;12.03;9.77;;;;;;;;;;5050065;28;20768;-85
2023/01/20 01:13:37;;;;;;;11.00;8.93;;;;;;;;;;5050147;28;20875;-85
2023/01/20 01:16:04;;;;;;;11.43;8.90;;;;;;;;;;5051422;28;20455;-85
2023/01/20 01:18:30;;;;;;;12.67;9.33;;;;;;;;;;5052247;28;20223;-85
2023/01/20 01:20:57;;;;;;;15.13;10.23;;;;;;;;;;5050559;28;20840;-84
2023/01/20 01:23:23;;;;;;;13.03;9.03;;;;;;;;;;5048809;28;20541;-85
2023/01/20 01:25:49;;;;;;;12.13;9.43;;;;;;;;;;5050424;28;21025;-85
2023/01/20 01:28:15;;;;;;;13.87;10.17;;;;;;;;;;5050579;28;20431;-86
2023/01/20 01:30:41;;;;;;;11.17;8.90;;;;;;;;;;5048106;28;20425;-85
2023/01/20 01:33:07;;;;;;;14.27;10.87;;;;;;;;;;5050784;28;20776;-86
2023/01/20 01:35:33;;;;;;;13.53;9.40;;;;;;;;;;5050015;28;20605;-86
2023/01/20 01:37:59;;;;;;;13.50;10.10;;;;;;;;;;5051325;28;20632;-85
2023/01/20 01:40:25;;;;;;;14.07;9.77;;;;;;;;;;5049823;28;20228;-85
2023/01/20 01:42:51;;;;;;;14.17;11.43;;;;;;;;;;5048576;28;20180;-85
2023/01/20 01:45:22;;;;;;;13.30;9.90;;;;;;;;;;5048897;28;20424;-85
2023/01/20 01:47:50;;;;;;;13.73;10.17;;;;;;;;;;5051503;28;20444;-85
2023/01/20 01:50:21;;;;;;;13.90;10.50;;;;;;;;;;5049883;28;20471;-86
2023/01/20 01:52:48;;;;;;;13.20;10.57;;;;;;;;;;5035331;28;20429;-86
2023/01/20 01:55:16;;;;;;;14.77;9.97;;;;;;;;;;5063410;28;20439;-86
2023/01/20 01:57:42;;;;;;;15.93;10.03;;;;;;;;;;5049839;28;20470;-85
2023/01/20 02:00:09;;;;;;;13.30;10.20;;;;;;;;;;5050034;28;20474;-85
2023/01/20 02:02:35;;;;;;;13.57;10.53;;;;;;;;;;5048344;28;20485;-85
2023/01/20 02:05:01;;;;;;;12.97;10.57;;;;;;;;;;5048859;28;20431;-85
2023/01/20 02:07:27;;;;;;;14.63;10.73;;;;;;;;;;5046200;28;20169;-85
2023/01/20 02:09:53;;;;;;;16.70;11.70;;;;;;;;;;5049216;28;20756;-86
2023/01/20 02:12:21;;;;;;;14.83;10.03;;;;;;;;;;5049444;28;20157;-85
2023/01/20 02:14:48;;;;;;;18.27;12.37;;;;;;;;;;5050124;28;20797;-84
2023/01/20 02:17:21;;;;;;;16.93;11.67;;;;;;;;;;5049722;28;20463;-85
2023/01/20 02:20:09;;;;;;;16.93;12.23;;;;;;;;;;5041678;28;20438;-85
2023/01/20 02:22:50;;;;;;;15.63;12.40;;;;;;;;;;5048652;28;20416;-86
2023/01/20 02:25:25;;;;;;;15.07;11.87;;;;;;;;;;5039931;28;20424;-86
2023/01/20 02:28:10;;;;;;;14.80;11.47;;;;;;;;;;5048894;28;20411;-85
2023/01/20 02:30:36;;;;;;;17.13;12.10;;;;;;;;;;5049529;28;20423;-84
2023/01/20 02:33:05;;;;;;;18.53;12.83;;;;;;;;;;5049859;28;20481;-85
2023/01/20 02:35:46;;;;;;;17.70;11.23;;;;;;;;;;5049478;28;20188;-85
2023/01/20 02:38:15;;;;;;;16.73;12.63;;;;;;;;;;5047070;28;20426;-86
2023/01/20 02:40:52;;;;;;;16.27;13.40;;;;;;;;;;5048566;28;20933;-85
2023/01/20 02:43:27;;;;;;;18.30;12.47;;;;;;;;;;5065361;28;20435;-84
2023/01/20 02:46:03;;;;;;;17.07;12.77;;;;;;;;;;5047428;28;20468;-85
2023/01/20 02:48:43;;;;;;;18.03;13.10;;;;;;;;;;5048658;28;20442;-85
2023/01/20 02:51:11;;;;;;;19.80;13.73;;;;;;;;;;5044487;28;20435;-85
2023/01/20 02:53:40;;;;;;;17.03;13.27;;;;;;;;;;5049549;28;20459;-86
2023/01/20 02:56:07;;;;;;;18.20;13.27;;;;;;;;;;5046830;28;20479;-85
2023/01/20 02:58:36;;;;;;;18.53;12.77;;;;;;;;;;5048940;28;20450;-86
2023/01/20 03:01:05;;;;;;;18.87;14.20;;;;;;;;;;5047533;28;20435;-85
2023/01/20 03:03:36;;;;;;;17.00;12.60;;;;;;;;;;5049913;28;20419;-86
2023/01/20 03:06:04;;;;;;;18.23;13.57;;;;;;;;;;5054086;28;20775;-86
2023/01/20 03:08:31;;;;;;;18.30;12.90;;;;;;;;;;5054143;28;20217;-85
2023/01/20 03:10:59;;;;;;;18.70;14.07;;;;;;;;;;5055184;28;20466;-85
2023/01/20 03:13:30;;;;;;;18.00;13.97;;;;;;;;;;5052960;28;20848;-85
2023/01/20 03:15:58;;;;;;;18.93;14.03;;;;;;;;;;5052822;28;20467;-85
2023/01/20 03:18:25;;;;;;;19.60;13.73;;;;;;;;;;5055298;28;20439;-85
2023/01/20 03:20:51;;;;;;;18.37;13.50;;;;;;;;;;5049943;28;20442;-85
2023/01/20 03:23:17;;;;;;;18.97;13.57;;;;;;;;;;5053324;28;20438;-85
2023/01/20 03:25:44;;;;;;;19.60;13.87;;;;;;;;;;5051645;28;20435;-84
2023/01/20 03:28:10;;;;;;;18.47;13.37;;;;;;;;;;5052760;28;20503;-85
2023/01/20 03:30:36;;;;;;;18.23;13.37;;;;;;;;;;5053312;28;20439;-85
2023/01/20 03:33:03;;;;;;;21.67;15.10;;;;;;;;;;5054210;28;20415;-85
2023/01/20 03:35:29;;;;;;;18.63;13.47;;;;;;;;;;5050866;28;20435;-85
2023/01/20 03:37:55;;;;;;;18.80;14.27;;;;;;;;;;5052503;28;20438;-85
2023/01/20 03:40:22;;;;;;;18.50;13.43;;;;;;;;;;5054404;28;20236;-86
2023/01/20 03:43:06;;;;;;;19.40;13.20;;;;;;;;;;5052020;28;20877;-86
2023/01/20 03:45:45;;;;;;;18.30;14.43;;;;;;;;;;5041325;28;20431;-85
2023/01/20 03:48:20;;;;;;;18.03;13.67;;;;;;;;;;5055332;28;20913;-85
2023/01/20 03:50:52;;;;;;;17.77;13.47;;;;;;;;;;5049753;28;20450;-85
2023/01/20 03:53:44;;;;;;;20.83;14.10;;;;;;;;;;5054223;28;20421;-84
2023/01/20 03:56:33;;;;;;;20.40;14.33;;;;;;;;;;5048039;28;20284;-84
2023/01/20 03:59:00;;;;;;;20.43;14.77;;;;;;;;;;5041456;28;20437;-84
2023/01/20 04:01:31;;;;;;;20.30;13.70;;;;;;;;;;5067614;28;20977;-84
2023/01/20 04:03:57;;;;;;;18.37;13.60;;;;;;;;;;5052986;28;20544;-84
2023/01/20 04:06:25;;;;;;;20.23;14.93;;;;;;;;;;5052068;28;20428;-84
2023/01/20 04:08:57;;;;;;;18.23;13.73;;;;;;;;;;5052518;28;20444;-85
2023/01/20 04:11:25;;;;;;;20.20;15.17;;;;;;;;;;5052054;28;20971;-85
2023/01/20 04:13:51;;;;;;;18.83;14.53;;;;;;;;;;5053473;28;20849;-84
2023/01/20 04:16:21;;;;;;;18.70;14.03;;;;;;;;;;5050231;28;20558;-85
2023/01/20 04:18:49;;;;;;;18.87;12.87;;;;;;;;;;5050266;28;20444;-85
2023/01/20 04:21:19;;;;;;;21.57;14.37;;;;;;;;;;5052041;28;20165;-84
2023/01/20 04:23:52;;;;;;;18.73;13.47;;;;;;;;;;5053368;28;20184;-84
2023/01/20 04:26:18;;;;;;;19.67;13.90;;;;;;;;;;5050503;28;20438;-84
2023/01/20 04:28:44;;;;;;;22.13;14.10;;;;;;;;;;5052135;28;20443;-84
2023/01/20 04:31:10;;;;;;;16.93;12.87;;;;;;;;;;5049403;28;20280;-84
2023/01/20 04:33:37;;;;;;;17.50;12.53;;;;;;;;;;5051742;28;20489;-84
2023/01/20 04:36:03;;;;;;;18.87;12.83;;;;;;;;;;5052439;28;20208;-85
2023/01/20 04:38:29;;;;;;;15.70;12.77;;;;;;;;;;5036968;28;20186;-84
2023/01/20 04:40:55;;;;;;;17.60;13.13;;;;;;;;;;5052633;28;20831;-84
2023/01/20 04:43:21;;;;;;;19.00;12.93;;;;;;;;;;5051815;28;20230;-85
2023/01/20 04:45:47;;;;;;;18.30;12.77;;;;;;;;;;5052836;28;20427;-85
2023/01/20 04:48:13;;;;;;;17.00;12.03;;;;;;;;;;5053429;28;20173;-84
2023/01/20 04:50:40;;;;;;;18.03;11.77;;;;;;;;;;5052590;28;20424;-84
2023/01/20 04:53:07;;;;;;;15.00;11.07;;;;;;;;;;5052327;28;20436;-84
2023/01/20 04:55:33;;;;;;;14.57;11.73;;;;;;;;;;5050997;28;20432;-85
2023/01/20 04:57:59;;;;;;;17.47;13.13;;;;;;;;;;5052827;28;20411;-84
2023/01/20 05:00:25;;;;;;;16.87;11.87;;;;;;;;;;5054039;28;20457;-85
2023/01/20 05:02:51;;;;;;;15.83;11.20;;;;;;;;;;5049608;28;21013;-85
2023/01/20 05:05:17;;;;;;;15.80;12.10;;;;;;;;;;5068377;28;20589;-84
2023/01/20 05:07:43;;;;;;;18.83;12.87;;;;;;;;;;5050272;28;20478;-84
2023/01/20 05:10:10;;;;;;;16.27;13.20;;;;;;;;;;5051574;28;20485;-84
2023/01/20 05:12:36;;;;;;;15.97;11.57;;;;;;;;;;5049647;28;20185;-85
2023/01/20 05:15:02;;;;;;;15.27;11.43;;;;;;;;;;5053527;28;20914;-84
2023/01/20 05:17:28;;;;;;;19.37;11.43;;;;;;;;;;5046683;28;21012;-84
2023/01/20 05:19:54;;;;;;;16.70;12.10;;;;;;;;;;5051746;28;20180;-84
2023/01/20 05:22:20;;;;;;;15.70;11.80;;;;;;;;;;5052212;28;20420;-85
2023/01/20 05:24:46;;;;;;;16.07;11.23;;;;;;;;;;5050899;28;20200;-85
2023/01/20 05:27:12;;;;;;;16.60;12.73;;;;;;;;;;5048931;28;20564;-85
2023/01/20 05:29:38;;;;;;;16.83;11.80;;;;;;;;;;5052367;28;20439;-84
2023/01/20 05:32:04;;;;;;;15.80;11.43;;;;;;;;;;5053056;28;20950;-84
2023/01/20 05:34:30;;;;;;;16.20;12.03;;;;;;;;;;5052661;28;20439;-84
2023/01/20 05:36:56;;;;;;;16.93;12.43;;;;;;;;;;5049776;28;20555;-84
2023/01/20 05:39:22;;;;;;;14.17;10.90;;;;;;;;;;5051476;28;20467;-85
2023/01/20 05:41:48;;;;;;;20.33;13.00;;;;;;;;;;5049437;28;20435;-85
2023/01/20 05:44:15;;;;;;;15.37;11.57;;;;;;;;;;5047987;28;20428;-84
2023/01/20 05:46:41;;;;;;;19.23;12.70;;;;;;;;;;5049937;28;20965;-84
2023/01/20 05:49:07;;;;;;;18.43;12.77;;;;;;;;;;5053204;28;20981;-83
2023/01/20 05:51:33;;;;;;;15.10;11.30;;;;;;;;;;5048586;28;20769;-88
2023/01/20 05:53:59;;;;;;;18.10;11.63;;;;;;;;;;5051197;28;20483;-85
2023/01/20 05:56:25;;;;;;;18.77;11.70;;;;;;;;;;5051357;28;20459;-85
2023/01/20 05:58:55;;;;;;;16.03;12.40;;;;;;;;;;5051429;28;20591;-85
2023/01/20 06:01:21;;;;;;;15.50;11.43;;;;;;;;;;5049909;28;20449;-85
2023/01/20 06:03:47;;;;;;;17.00;11.27;;;;;;;;;;5050269;28;20240;-86
2023/01/20 06:06:14;;;;;;;14.47;10.63;;;;;;;;;;5055776;28;20177;-86
2023/01/20 06:08:41;;;;;;;13.93;10.87;;;;;;;;;;5054088;28;20434;-86
2023/01/20 06:11:07;;;;;;;14.57;10.60;;;;;;;;;;5050996;28;20185;-84
2023/01/20 06:13:34;;;;;;;15.80;12.07;;;;;;;;;;5052134;28;20526;-86
2023/01/20 06:16:00;;;;;;;13.57;10.67;;;;;;;;;;5051947;28;20509;-84
2023/01/20 06:18:27;;;;;;;14.40;10.60;;;;;;;;;;5052263;28;20192;-89
2023/01/20 06:20:57;;;;;;;12.40;9.83;;;;;;;;;;5057001;28;20304;-85
2023/01/20 06:23:23;;;;;;;14.33;11.17;;;;;;;;;;5053805;28;20404;-88
2023/01/20 06:25:56;;;;;;;16.73;11.30;;;;;;;;;;5052717;28;20204;-86
2023/01/20 06:28:23;;;;;;;14.37;11.13;;;;;;;;;;5041406;28;20435;-85
2023/01/20 06:30:49;;;;;;;15.73;11.67;;;;;;;;;;5049829;28;20283;-84
2023/01/20 06:33:15;;;;;;;16.47;12.07;;;;;;;;;;5049612;28;20443;-87
2023/01/20 06:35:41;;;;;;;15.00;10.83;;;;;;;;;;5053904;28;20433;-88
2023/01/20 06:38:07;;;;;;;15.10;10.47;;;;;;;;;;5051763;28;20934;-84
2023/01/20 06:40:33;;;;;;;14.67;11.53;;;;;;;;;;5068341;28;20780;-83
2023/01/20 06:42:59;;;;;;;16.27;11.50;;;;;;;;;;5050764;28;20424;-81
2023/01/20 06:45:25;;;;;;;15.70;10.70;;;;;;;;;;5050645;28;20436;-81
2023/01/20 06:47:51;;;;;;;12.70;10.07;;;;;;;;;;5053084;28;20419;-82
2023/01/20 06:50:17;;;;;;;15.53;10.53;;;;;;;;;;5051834;28;20519;-82
2023/01/20 06:52:43;;;;;;;15.63;10.43;;;;;;;;;;5053162;28;20428;-81
2023/01/20 06:55:09;;;;;;;14.80;11.30;;;;;;;;;;5048510;28;20423;-82
2023/01/20 06:57:35;;;;;;;15.50;10.23;;;;;;;;;;5051516;28;20463;-83
2023/01/20 07:00:01;;;;;;;17.13;10.37;;;;;;;;;;5049314;28;20954;-81
2023/01/20 07:02:27;;;;;;;15.77;11.00;;;;;;;;;;5052402;28;20173;-82
2023/01/20 07:04:53;;;;;;;14.20;9.80;;;;;;;;;;5066706;28;20435;-82
2023/01/20 07:07:19;;;;;;;13.00;10.30;;;;;;;;;;5048423;28;20833;-82
2023/01/20 07:09:45;;;;;;;14.10;10.67;;;;;;;;;;5039410;28;20774;-82
2023/01/20 07:12:11;;;;;;;13.07;10.20;;;;;;;;;;5048262;28;20624;-83
2023/01/20 07:14:37;;;;;;;13.13;9.50;;;;;;;;;;5049656;28;20189;-82
2023/01/20 07:17:05;;;;;;;17.33;11.57;;;;;;;;;;5047631;28;20205;-82
2023/01/20 07:19:31;;;;;;;16.77;11.67;;;;;;;;;;5050362;28;20799;-81
2023/01/20 07:21:57;;;;;;;14.13;10.33;;;;;;;;;;5051254;28;20632;-83
2023/01/20 07:24:23;;;;;;;14.40;10.83;;;;;;;;;;5050168;28;20271;-81
2023/01/20 07:26:52;;;;;;;15.03;10.50;;;;;;;;;;5050650;28;20946;-81
2023/01/20 07:29:18;;;;;;;14.63;10.60;;;;;;;;;;5050390;28;20185;-81
2023/01/20 07:31:44;;;;;;;13.60;10.10;;;;;;;;;;5043055;28;20177;-84
2023/01/20 07:34:10;;;;;;;17.03;10.27;;;;;;;;;;5047781;28;20181;-83
2023/01/20 07:36:36;;;;;;;15.57;11.23;;;;;;;;;;5050890;28;20576;-81
2023/01/20 07:39:02;;;;;;;16.43;10.53;;;;;;;;;;5046803;28;20616;-82
2023/01/20 07:41:28;;;;;;;15.43;10.83;;;;;;;;;;5047283;28;20262;-86
2023/01/20 07:43:54;;;;;;;13.63;10.57;;;;;;;;;;5048322;28;20404;-83
2023/01/20 07:46:21;;;;;;;14.77;10.77;;;;;;;;;;5047949;28;20260;-84
2023/01/20 07:48:47;;;;;;;15.33;11.33;;;;;;;;;;5044884;28;20913;-82
2023/01/20 07:51:14;;;;;;;15.77;11.33;;;;;;;;;;5046236;28;20789;-84
2023/01/20 07:53:42;;;;;;;15.70;11.23;;;;;;;;;;5057198;28;20427;-83
2023/01/20 07:56:11;;;;;;;14.27;10.80;;;;;;;;;;5054238;28;20463;-85
2023/01/20 07:58:37;;;;;;;13.60;10.63;;;;;;;;;;5055273;28;20929;-83
2023/01/20 08:01:07;;;;;;;16.03;10.83;;;;;;;;;;5052599;28;20177;-84
2023/01/20 08:03:33;;;;;;;12.27;10.23;;;;;;;;;;5072950;28;20427;-84
2023/01/20 08:06:01;;;;;;;15.87;11.67;;;;;;;;;;5083489;28;20203;-84
2023/01/20 08:08:28;;;;;;;14.00;10.87;;;;;;;;;;5054087;28;20180;-83
2023/01/20 08:10:54;;;;;;;15.30;10.83;;;;;;;;;;5053202;28;20219;-83
2023/01/20 08:13:20;;;;;;;15.43;11.67;;;;;;;;;;5086460;28;20439;-83
2023/01/20 08:15:46;;;;;;;16.27;11.27;;;;;;;;;;5056963;28;20419;-84
2023/01/20 08:18:12;;;;;;;16.57;11.30;;;;;;;;;;5049554;28;20189;-84
2023/01/20 08:20:41;;;;;;;13.57;11.13;;;;;;;;;;5053177;28;20184;-83
2023/01/20 08:23:07;;;;;;;15.33;11.83;;;;;;;;;;5056094;28;20446;-84
2023/01/20 08:25:33;;;;;;;15.37;10.97;;;;;;;;;;5053798;28;20207;-83
2023/01/20 08:27:59;;;;;;;18.77;12.67;;;;;;;;;;5055251;28;20161;-83
2023/01/20 08:30:26;;;;;;;15.57;11.43;;;;;;;;;;5054583;28;20404;-85
2023/01/20 08:32:52;;;;;;;14.20;10.93;;;;;;;;;;5054041;28;20186;-83
2023/01/20 08:35:18;;;;;;;14.60;11.17;;;;;;;;;;5054846;28;20419;-83
2023/01/20 08:37:53;;;;;;;14.10;11.03;;;;;;;;;;5053465;28;20204;-84
2023/01/20 08:40:19;;;;;;;15.00;10.87;;;;;;;;;;5053689;28;20462;-83
2023/01/20 08:42:45;;;;;;;15.03;12.10;;;;;;;;;;5054568;28;20926;-85
2023/01/20 08:45:11;;;;;;;16.23;10.73;;;;;;;;;;5054894;28;20170;-84
2023/01/20 08:47:38;;;;;;;14.37;11.67;;;;;;;;;;5055249;28;20947;-83
2023/01/20 08:50:06;;;;;;;13.97;10.63;;;;;;;;;;5055194;28;20422;-83
2023/01/20 08:52:33;;;;;;;14.90;11.03;;;;;;;;;;5053965;28;20937;-83
2023/01/20 08:54:59;;;;;;;14.97;9.93;;;;;;;;;;5043297;28;20433;-83
2023/01/20 08:57:25;;;;;;;14.50;11.03;;;;;;;;;;5034928;28;20206;-83
2023/01/20 08:59:52;;;;;;;13.80;11.07;;;;;;;;;;5051003;28;20904;-84
2023/01/20 09:02:18;;;;;;;14.17;10.77;;;;;;;;;;5050246;28;20174;-85
2023/01/20 09:04:44;;;;;;;12.73;10.37;;;;;;;;;;5050468;28;20397;-84
2023/01/20 09:07:13;;;;;;;12.37;10.53;;;;;;;;;;5036182;28;20926;-83
2023/01/20 09:09:39;;;;;;;14.63;11.73;;;;;;;;;;5058817;28;20529;-84
2023/01/20 09:12:05;;;;;;;13.40;10.60;;;;;;;;;;5052811;28;20438;-83
2023/01/20 09:14:31;;;;;;;14.33;11.17;;;;;;;;;;5053907;28;20844;-83
2023/01/20 09:16:59;;;;;;;14.07;11.23;;;;;;;;;;5053696;28;20466;-83
2023/01/20 09:19:25;;;;;;;13.27;9.80;;;;;;;;;;5054334;28;20627;-83
2023/01/20 09:21:51;;;;;;;13.00;10.30;;;;;;;;;;5052926;28;20180;-85
2023/01/20 09:24:17;;;;;;;15.73;10.67;;;;;;;;;;5052595;28;20428;-84
2023/01/20 09:26:44;;;;;;;14.67;11.07;;;;;;;;;;5053532;28;20415;-83
2023/01/20 09:29:17;;;;;;;12.87;9.70;;;;;;;;;;5052759;28;20268;-83
2023/01/20 09:31:49;;;;;;;14.13;10.50;;;;;;;;;;5051625;28;20564;-84
2023/01/20 09:34:23;;;;;;;14.57;10.90;;;;;;;;;;5063813;28;20428;-83
2023/01/20 09:36:53;;;;;;;14.77;10.73;;;;;;;;;;5044307;28;20520;-83
2023/01/20 09:45:23;;;;;;;12.73;10.37;;;;;;;;;;5051446;28;20438;-83
2023/01/20 09:47:50;;;;;;;15.13;11.40;;;;;;;;;;5053086;28;20796;-83
2023/01/20 09:53:20;;;;;;;14.83;10.90;;;;;;;;;;5052333;28;20434;-81
2023/01/20 09:55:49;;;;;;;14.30;11.13;;;;;;;;;;5051135;28;20431;-82
2023/01/20 09:58:20;;;;;;;14.77;11.50;;;;;;;;;;5055905;28;20199;-82
2023/01/20 10:00:49;;;;;;;13.60;10.23;;;;;;;;;;5060154;28;20276;-84
2023/01/20 10:03:21;;;;;;;11.87;9.63;;;;;;;;;;5052872;28;20424;-85
2023/01/20 10:05:49;;;;;;;14.13;10.23;;;;;;;;;;5058414;28;20494;-84
2023/01/20 10:08:15;;;;;;;13.80;10.87;;;;;;;;;;5065201;28;20236;-84
2023/01/20 10:10:50;;;;;;;15.13;11.20;;;;;;;;;;5062424;28;20200;-82
2023/01/20 10:13:36;;;;;;;14.37;11.13;;;;;;;;;;5054288;28;20183;-83
2023/01/20 10:16:05;;;;;;;15.27;11.13;;;;;;;;;;5053436;28;20459;-83
2023/01/20 10:18:47;;;;;;;15.80;11.93;;;;;;;;;;5057578;28;20771;-83
2023/01/20 10:21:17;;;;;;;15.33;11.70;;;;;;;;;;5048488;28;20842;-83
2023/01/20 10:23:46;;;;;;;15.70;11.80;;;;;;;;;;5051287;28;20288;-83
2023/01/20 10:26:15;;;;;;;13.67;11.77;;;;;;;;;;5051726;28;20427;-83
2023/01/20 10:28:44;;;;;;;13.97;11.53;;;;;;;;;;5049711;28;20518;-83
2023/01/20 10:31:12;;;;;;;13.30;10.90;;;;;;;;;;5051794;28;20181;-83
2023/01/20 10:33:44;;;;;;;13.57;10.97;;;;;;;;;;5055515;28;20204;-82
2023/01/20 10:36:14;;;;;;;13.43;10.70;;;;;;;;;;5042755;28;20808;-84
2023/01/20 10:38:59;;;;;;;13.57;10.93;;;;;;;;;;5061099;28;20175;-83
2023/01/20 10:41:34;;;;;;;13.80;11.33;;;;;;;;;;5056601;28;20484;-84
2023/01/20 10:44:00;;;;;;;13.43;11.30;;;;;;;;;;5060562;28;20196;-82
2023/01/20 10:46:51;;;;;;;14.43;11.23;;;;;;;;;;5051345;28;21151;-84
2023/01/20 10:49:20;;;;;;;18.13;12.13;;;;;;;;;;5068168;28;20181;-80
2023/01/20 10:52:05;;;;;;;11.97;10.03;;;;;;;;;;5063913;28;20308;-83
2023/01/20 10:54:50;;;;;;;13.97;11.10;;;;;;;;;;5053844;28;20686;-81
2023/01/20 10:57:16;;;;;;;14.43;11.43;;;;;;;;;;5049927;28;20547;-82
2023/01/20 10:59:44;;;;;;;18.47;10.97;;;;;;;;;;5054131;28;20640;-82
2023/01/20 11:02:25;;;;;;;12.97;10.93;;;;;;;;;;5054487;28;20442;-83
2023/01/20 11:04:58;;;;;;;13.50;10.87;;;;;;;;;;5045989;28;20162;-83
2023/01/20 11:07:25;;;;;;;14.83;10.37;;;;;;;;;;5036806;28;20177;-84
2023/01/20 11:09:51;;;;;;;13.37;10.83;;;;;;;;;;5039977;28;20845;-83
2023/01/20 11:12:20;;;;;;;14.50;11.23;;;;;;;;;;5051029;28;20916;-83
2023/01/20 11:14:47;;;;;;;13.33;10.97;;;;;;;;;;5050568;28;20427;-83
2023/01/20 11:17:15;;;;;;;11.30;9.90;;;;;;;;;;4956463;28;20195;-86
2023/01/20 11:19:49;;;;;;;14.47;10.70;;;;;;;;;;5057341;28;20260;-87
2023/01/20 11:22:19;;;;;;;14.10;11.10;;;;;;;;;;5052284;28;20280;-86
2023/01/20 11:24:45;;;;;;;11.80;9.77;;;;;;;;;;5055694;28;20506;-87
2023/01/20 11:27:19;;;;;;;13.70;11.17;;;;;;;;;;5058848;28;20416;-87
2023/01/20 11:29:49;;;;;;;15.83;10.03;;;;;;;;;;5048123;28;20597;-86
2023/01/20 11:32:29;;;;;;;15.50;9.97;;;;;;;;;;5056509;28;20192;-89
2023/01/20 11:34:56;;;;;;;12.10;9.97;;;;;;;;;;5066122;28;20581;-88
2023/01/20 11:37:26;;;;;;;13.33;9.80;;;;;;;;;;5054336;28;20224;-86
2023/01/20 11:39:56;;;;;;;12.63;9.93;;;;;;;;;;5067377;28;20239;-88
2023/01/20 11:42:26;;;;;;;12.87;9.97;;;;;;;;;;5055480;28;20423;-87
2023/01/20 11:44:57;;;;;;;13.03;10.47;;;;;;;;;;5060980;28;20181;-88
2023/01/20 11:47:30;;;;;;;11.77;9.90;;;;;;;;;;5056751;28;20750;-88
2023/01/20 11:50:20;;;;;;;11.30;9.47;;;;;;;;;;5055742;28;20192;-87
2023/01/20 11:52:46;;;;;;;13.30;9.50;;;;;;;;;;5034915;28;20435;-86
2023/01/20 11:55:12;;;;;;;10.87;9.17;;;;;;;;;;5054340;28;20404;-85
2023/01/20 11:57:39;;;;;;;13.63;10.00;;;;;;;;;;5054408;28;20973;-86
2023/01/20 12:00:26;;;;;;;10.40;8.20;;;;;;;;;;5051948;28;20182;-86
2023/01/20 12:02:59;;;;;;;11.27;9.60;;;;;;;;;;5052462;28;20184;-87
2023/01/20 12:05:46;;;;;;;10.10;8.60;;;;;;;;;;5052238;28;20675;-87
2023/01/20 12:08:17;;;;;;;13.07;8.93;;;;;;;;;;5052589;28;20203;-87
2023/01/20 12:10:44;;;;;;;11.43;8.97;;;;;;;;;;5054160;28;20239;-87
2023/01/20 12:13:19;;;;;;;10.37;8.77;;;;;;;;;;5054763;28;20452;-88
2023/01/20 12:15:51;;;;;;;11.60;8.77;;;;;;;;;;5056393;28;20161;-87
2023/01/20 12:18:36;;;;;;;10.07;8.67;;;;;;;;;;5055387;28;20177;-87
2023/01/20 12:21:23;;;;;;;10.20;8.50;;;;;;;;;;5055980;28;20157;-88
2023/01/20 12:24:04;;;;;;;10.37;8.50;;;;;;;;;;5055677;28;20161;-87
2023/01/20 12:26:33;;;;;;;11.20;8.30;;;;;;;;;;5056991;28;20879;-86
2023/01/20 12:29:06;;;;;;;9.53;7.20;;;;;;;;;;5046468;23;20241;-83
2023/01/20 12:31:33;;;;;;;10.53;7.87;;;;;;;;;;5022422;28;20966;-83
2023/01/20 12:33:59;;;;;;;9.87;8.03;;;;;;;;;;5035029;28;20190;-84
2023/01/20 12:36:29;;;;;;;9.13;7.87;;;;;;;;;;5026606;28;20202;-86
2023/01/20 12:38:58;;;;;;;10.40;7.97;;;;;;;;;;5042495;28;20347;-86
2023/01/20 12:41:30;;;;;;;11.60;7.40;;;;;;;;;;5029943;28;20862;-84
2023/01/20 12:44:04;;;;;;;9.37;7.67;;;;;;;;;;5032861;28;20166;-85
2023/01/20 12:46:40;;;;;;;8.13;7.00;;;;;;;;;;5033799;28;20230;-84
2023/01/20 12:49:25;;;;;;;10.20;7.20;;;;;;;;;;5037466;28;20411;-83
2023/01/20 12:52:05;;;;;;;8.80;7.03;;;;;;;;;;5041227;28;20754;-83
2023/01/20 12:54:46;;;;;;;8.37;7.30;;;;;;;;;;5033892;28;20432;-84
2023/01/20 12:57:24;;;;;;;8.70;6.83;;;;;;;;;;5033515;28;20452;-84
2023/01/20 12:59:59;;;;;;;11.47;8.03;;;;;;;;;;5031821;28;20277;-84
2023/01/20 13:02:36;;;;;;;9.40;6.93;;;;;;;;;;5029814;28;20424;-83
2023/01/20 13:05:05;;;;;;;9.23;7.17;;;;;;;;;;5044043;28;20173;-82
2023/01/20 13:07:31;;;;;;;9.43;7.63;;;;;;;;;;5042838;28;20190;-82
2023/01/20 13:10:12;;;;;;;8.83;7.03;;;;;;;;;;5028107;28;20185;-81
2023/01/20 13:12:43;;;;;;;8.40;6.70;;;;;;;;;;5029514;28;20249;-81
2023/01/20 13:15:09;;;;;;;7.33;6.63;;;;;;;;;;5033701;28;20420;-84
2023/01/20 13:17:42;;;;;;;7.63;6.83;;;;;;;;;;5049036;28;20278;-85
2023/01/20 13:20:20;;;;;;;8.87;7.57;;;;;;;;;;5032876;28;20417;-84
2023/01/20 13:22:47;;;;;;;9.70;6.90;;;;;;;;;;5026355;28;20474;-82
2023/01/20 13:25:15;;;;;;;7.57;6.37;;;;;;;;;;5031765;28;20247;-81
2023/01/20 13:27:43;;;;;;;9.87;7.40;;;;;;;;;;5033511;28;20222;-81
2023/01/20 13:30:29;;;;;;;8.37;7.13;;;;;;;;;;5029308;28;20204;-81
2023/01/20 13:33:02;;;;;;;8.13;6.67;;;;;;;;;;5035898;28;20196;-82
2023/01/20 13:38:20;;;;;;;7.97;6.23;;;;;;;;;;5050025;23;20300;-82
2023/01/20 13:40:48;;;;;;;9.47;7.30;;;;;;;;;;4995135;28;20181;-86
2023/01/20 13:43:24;;;;;;;7.57;6.27;;;;;;;;;;5066742;28;20199;-86
2023/01/20 13:46:10;;;;;;;8.97;6.97;;;;;;;;;;5072103;28;20603;-86
2023/01/20 13:51:14;;;;;;;7.80;6.87;;;;;;;;;;2693071;23;20228;-82
2023/01/20 13:53:40;;;;;;;8.97;6.67;;;;;;;;;;5069568;28;20185;-82
2023/01/20 13:56:27;;;;;;;7.50;6.23;;;;;;;;;;5067374;28;20197;-83
2023/01/20 13:58:59;;;;;;;10.70;6.53;;;;;;;;;;5065559;28;20414;-82
2023/01/20 14:01:26;;;;;;;9.20;6.77;;;;;;;;;;5073081;28;20188;-82
2023/01/20 14:04:14;;;;;;;8.73;6.80;;;;;;;;;;5073599;28;20221;-82
2023/01/20 14:06:44;;;;;;;9.40;7.63;;;;;;;;;;5073381;28;20179;-82
2023/01/20 14:09:18;;;;;;;7.63;5.90;;;;;;;;;;5072117;28;20199;-83
2023/01/20 14:11:51;;;;;;;7.37;6.17;;;;;;;;;;5073128;28;20172;-82
2023/01/20 14:14:18;;;;;;;7.53;6.73;;;;;;;;;;5071766;28;20180;-85
2023/01/20 14:16:44;;;;;;;7.80;7.00;;;;;;;;;;5086858;28;20467;-83
2023/01/20 14:19:24;;;;;;;7.93;6.63;;;;;;;;;;5065571;28;20973;-83
2023/01/20 14:21:51;;;;;;;8.60;6.93;;;;;;;;;;5071486;28;20422;-81
2023/01/20 14:24:36;;;;;;;6.77;6.03;;;;;;;;;;5070348;28;20956;-82
2023/01/20 14:27:14;;;;;;;8.47;7.20;;;;;;;;;;5069644;28;20454;-85
2023/01/20 14:29:40;;;;;;;8.00;6.23;;;;;;;;;;5064194;28;20418;-85
2023/01/20 14:32:29;;;;;;;7.17;6.47;;;;;;;;;;5066690;28;20415;-83
2023/01/20 14:34:56;;;;;;;8.17;6.27;;;;;;;;;;5061875;28;20423;-82
2023/01/20 14:37:22;;;;;;;9.23;6.00;;;;;;;;;;5070798;28;20303;-82
2023/01/20 14:39:49;;;;;;;7.10;6.40;;;;;;;;;;5073178;28;20403;-84
2023/01/20 14:42:19;;;;;;;7.67;6.47;;;;;;;;;;5072414;28;20161;-84
2023/01/20 14:44:49;;;;;;;6.90;6.20;;;;;;;;;;5072552;28;20419;-82
2023/01/20 14:47:15;;;;;;;8.73;6.43;;;;;;;;;;5068353;28;20427;-82
2023/01/20 14:49:42;;;;;;;8.77;6.13;;;;;;;;;;5064216;28;20435;-82